aviador You're here:

KLTS Decoded Metar

ALTUS in OK, USA
Report Time2017-11-25 08:56:00
UTC Time2017-11-25 09:31:04
Flight Rules vfr VFR
Wind020° at 07 kt
W.Decomp.*RWY 35: 6.5 kt HW 2.6 kt RCW
W.Rank020° ranks 8
Current wind is below 020° avg. (10.4)
Visibility9999 m
Phenomena:N/A
Clouds:N/A
Expected CloudBase > 4,000 ft AGL from Temp-Dew spread
CeilingNone
Temp11°C (ISA -1)
Dew Point01°C (50% RH)
AAT6.6°C
QNH1012 hPa
Density Alt1,355 ft
Elevation1,378 ft
Report Wrong Elevation
Raw Report
KLTS 250856Z AUTO 02007KT 10SM CLR 11/01 A2989 RMK AO2 VIS 1 3/4
RWY35R SLP113 T01090014 52034 $=

Extra information for KLTS:More info

Metar Taf Metar & Taf Last 4 Metars F.Rules Stats Wind Profile Meteogram Temp Stats Airport Information Weather charts Add Link Nearby VenuesMetar ALERT Operation Metar Decoded Social comments

AIRNAV info for KLTS